createdAt,value
2023-04-25T00:01:49.061Z,100.00
2023-04-25T00:06:52.075Z,100.00
2023-04-25T00:11:53.742Z,100.00
2023-04-25T00:16:55.497Z,100.00
2023-04-25T00:21:58.563Z,100.00
2023-04-25T00:27:00.403Z,100.00
2023-04-25T00:32:02.857Z,100.00
2023-04-25T00:37:06.039Z,100.00
2023-04-25T00:42:08.923Z,100.00
2023-04-25T00:47:12.144Z,100.00
2023-04-25T00:52:15.284Z,100.00
2023-04-25T00:57:17.052Z,100.00
2023-04-25T01:02:18.980Z,100.00
2023-04-25T01:07:22.093Z,100.00
2023-04-25T01:12:24.484Z,100.00
2023-04-25T01:17:26.160Z,100.00
2023-04-25T01:22:29.457Z,100.00
2023-04-25T01:27:31.544Z,100.00
2023-04-25T01:32:34.689Z,100.00
2023-04-25T01:37:38.062Z,100.00
2023-04-25T01:42:43.069Z,100.00
2023-04-25T01:47:45.371Z,100.00
2023-04-25T01:52:48.450Z,100.00
2023-04-25T01:57:50.107Z,100.00
2023-04-25T02:02:51.924Z,100.00
2023-04-25T02:07:55.075Z,100.00
2023-04-25T02:12:57.951Z,100.00
2023-04-25T02:17:59.827Z,100.00
2023-04-25T02:23:03.194Z,100.00
2023-04-25T02:28:05.230Z,100.00
2023-04-25T02:33:06.937Z,100.00
2023-04-25T02:38:09.953Z,100.00
2023-04-25T02:43:11.633Z,100.00
2023-04-25T02:48:13.328Z,100.00
2023-04-25T02:53:16.373Z,100.00
2023-04-25T02:58:18.106Z,100.00
2023-04-25T03:03:20.057Z,100.00
2023-04-25T03:08:23.209Z,100.00
2023-04-25T03:13:24.922Z,100.00
2023-04-25T03:18:26.641Z,100.00
2023-04-25T03:23:29.677Z,100.00
2023-04-25T03:28:31.363Z,100.00
2023-04-25T03:33:33.107Z,100.00
2023-04-25T03:38:36.513Z,100.00
2023-04-25T03:43:38.157Z,100.00
2023-04-25T03:48:39.822Z,100.00
2023-04-25T03:53:42.846Z,100.00
2023-04-25T03:58:44.740Z,100.00
2023-04-25T04:03:46.587Z,100.00
2023-04-25T04:08:49.742Z,100.00
2023-04-25T04:13:51.632Z,100.00
2023-04-25T04:18:53.441Z,100.00
2023-04-25T04:23:56.565Z,100.00
2023-04-25T04:28:58.178Z,100.00
2023-04-25T04:33:59.821Z,100.00
2023-04-25T04:39:02.911Z,100.00
2023-04-25T04:44:05.433Z,100.00
2023-04-25T04:49:08.311Z,100.00
2023-04-25T04:54:11.279Z,100.00
2023-04-25T04:59:12.958Z,100.00
2023-04-25T05:04:14.706Z,100.00
2023-04-25T05:09:17.728Z,100.00
2023-04-25T05:14:19.368Z,100.00
2023-04-25T05:19:20.987Z,100.00
2023-04-25T05:24:24.022Z,100.00
2023-04-25T05:29:25.808Z,90.08
2023-04-25T05:34:27.452Z,86.41
2023-04-25T05:39:30.514Z,80.70
2023-04-25T05:44:32.140Z,85.06
2023-04-25T05:49:33.712Z,87.93
2023-04-25T05:54:36.671Z,93.07
2023-04-25T05:59:38.358Z,92.39
2023-04-25T06:04:40.164Z,93.51
2023-04-25T06:09:44.323Z,92.18
2023-04-25T06:14:46.002Z,98.79
2023-04-25T06:19:47.673Z,89.90
2023-04-25T06:24:50.647Z,90.29
2023-04-25T06:29:52.321Z,84.63
2023-04-25T06:34:53.989Z,84.94
2023-04-25T06:39:57.010Z,84.74
2023-04-25T06:44:58.614Z,81.46
2023-04-25T06:50:00.509Z,80.98
2023-04-25T06:55:03.780Z,79.64
2023-04-25T07:00:06.839Z,82.93
2023-04-25T07:05:09.085Z,85.14
2023-04-25T07:10:12.225Z,86.32
2023-04-25T07:15:13.973Z,87.38
2023-04-25T07:20:15.560Z,86.32
2023-04-25T07:25:18.609Z,84.89
2023-04-25T07:30:20.251Z,85.03
2023-04-25T07:35:21.869Z,85.16
2023-04-25T07:40:24.978Z,78.50
2023-04-25T07:45:26.997Z,83.98
2023-04-25T07:50:28.612Z,82.76
2023-04-25T07:55:31.702Z,81.96
2023-04-25T08:00:33.357Z,82.76
2023-04-25T08:05:35.058Z,80.40
2023-04-25T08:10:38.157Z,83.50
2023-04-25T08:15:39.846Z,82.48
2023-04-25T08:20:41.459Z,84.67
2023-04-25T08:25:44.405Z,85.58
2023-04-25T08:30:46.050Z,86.59
2023-04-25T08:35:50.213Z,83.11
2023-04-25T08:40:54.625Z,79.59
2023-04-25T08:46:00.449Z,80.63
2023-04-25T08:51:03.640Z,83.58
2023-04-25T08:56:07.919Z,82.26
2023-04-25T09:01:09.684Z,76.56
2023-04-25T09:06:12.080Z,79.18
2023-04-25T09:11:15.309Z,78.90
2023-04-25T09:16:16.927Z,76.02
2023-04-25T09:21:18.679Z,76.94
2023-04-25T09:26:22.049Z,71.23
2023-04-25T09:31:25.001Z,72.28
2023-04-25T09:36:28.003Z,72.85
2023-04-25T09:41:31.159Z,73.48
2023-04-25T09:46:36.086Z,71.96
2023-04-25T09:51:38.309Z,70.39
2023-04-25T09:56:42.119Z,71.44
2023-04-25T10:01:44.550Z,70.80
2023-04-25T10:06:46.988Z,68.45
2023-04-25T10:11:51.360Z,70.11
2023-04-25T10:16:53.168Z,71.32
2023-04-25T10:22:02.066Z,69.41
2023-04-25T10:27:05.924Z,70.19
2023-04-25T10:32:08.768Z,68.86
2023-04-25T10:37:11.363Z,68.24
2023-04-25T10:42:14.486Z,65.10
2023-04-25T10:47:36.000Z,64.90
2023-04-25T10:52:39.936Z,63.51
2023-04-25T10:57:44.000Z,63.73
2023-04-25T11:02:47.151Z,64.42
2023-04-25T11:07:59.990Z,65.10
2023-04-25T11:13:07.203Z,67.12
2023-04-25T11:18:10.013Z,68.85
2023-04-25T11:23:14.473Z,65.12
2023-04-25T11:28:22.754Z,65.71
2023-04-25T11:33:25.139Z,61.77
2023-04-25T11:38:28.745Z,60.51
2023-04-25T11:43:33.218Z,58.64
2023-04-25T11:48:38.454Z,58.65
2023-04-25T11:53:42.527Z,61.12
2023-04-25T11:58:59.265Z,58.18
2023-04-25T12:04:12.540Z,57.76
2023-04-25T12:09:15.151Z,57.71
2023-04-25T12:14:25.689Z,58.23
2023-04-25T12:19:32.575Z,59.84
2023-04-25T12:24:38.382Z,58.34
2023-04-25T12:29:51.938Z,57.65
2023-04-25T12:34:53.804Z,58.17
2023-04-25T12:39:55.425Z,58.29
2023-04-25T12:44:58.462Z,62.00
2023-04-25T12:50:00.166Z,57.97
2023-04-25T12:55:01.823Z,60.71
2023-04-25T13:00:06.781Z,58.32
2023-04-25T13:05:08.603Z,59.22
2023-04-25T13:10:11.160Z,60.10
2023-04-25T13:15:14.310Z,59.67
2023-04-25T13:20:16.014Z,58.06
2023-04-25T13:25:17.811Z,59.63
2023-04-25T13:30:22.233Z,58.98
2023-04-25T13:35:24.199Z,59.30
2023-04-25T13:40:26.053Z,57.35
2023-04-25T13:45:30.628Z,60.90
2023-04-25T13:50:33.955Z,55.32
2023-04-25T13:55:35.668Z,56.00
2023-04-25T14:00:40.544Z,57.13
2023-04-25T14:05:42.825Z,59.49
2023-04-25T14:10:44.530Z,57.35
2023-04-25T14:15:47.661Z,56.07
2023-04-25T14:20:49.503Z,57.07
2023-04-25T14:25:51.198Z,57.77
2023-04-25T14:30:54.355Z,55.67
2023-04-25T14:35:56.089Z,56.44
2023-04-25T14:40:57.875Z,56.45
2023-04-25T14:46:00.800Z,57.20
2023-04-25T14:51:02.420Z,57.43
2023-04-25T14:56:04.407Z,56.17
2023-04-25T15:01:07.531Z,56.75
2023-04-25T15:06:09.306Z,55.86
2023-04-25T15:11:11.010Z,57.46
2023-04-25T15:16:14.112Z,57.97
2023-04-25T15:21:15.964Z,55.12
2023-04-25T15:26:17.560Z,54.69
2023-04-25T15:31:20.520Z,56.23
2023-04-25T15:36:22.174Z,55.22
2023-04-25T15:41:24.468Z,57.40
2023-04-25T15:46:27.649Z,55.40
2023-04-25T15:51:29.447Z,56.26
2023-04-25T15:56:31.081Z,55.70
2023-04-25T16:01:34.087Z,57.67
2023-04-25T16:06:35.828Z,58.78
2023-04-25T16:11:37.484Z,58.72
2023-04-25T16:16:40.544Z,60.36
2023-04-25T16:21:43.145Z,63.09
2023-04-25T16:26:44.879Z,61.22
2023-04-25T16:31:48.365Z,60.62
2023-04-25T16:36:50.086Z,61.22
2023-04-25T16:41:51.736Z,57.05
2023-04-25T16:46:54.778Z,55.74
2023-04-25T16:51:56.751Z,54.62
2023-04-25T16:56:58.482Z,56.45
2023-04-25T17:02:01.586Z,61.13
2023-04-25T17:07:03.278Z,56.18
2023-04-25T17:12:05.439Z,60.44
2023-04-25T17:17:08.731Z,63.64
2023-04-25T17:22:10.426Z,60.48
2023-04-25T17:27:12.091Z,59.29
2023-04-25T17:32:17.400Z,60.02
2023-04-25T17:37:19.270Z,61.89
2023-04-25T17:42:20.915Z,62.18
2023-04-25T17:47:24.173Z,65.48
2023-04-25T17:52:26.399Z,66.99
2023-04-25T17:57:28.057Z,70.97
2023-04-25T18:02:31.225Z,70.94
2023-04-25T18:07:32.855Z,72.39
2023-04-25T18:12:34.792Z,71.66
2023-04-25T18:17:37.881Z,75.14
2023-04-25T18:22:39.544Z,74.77
2023-04-25T18:27:41.637Z,73.83
2023-04-25T18:32:44.709Z,75.55
2023-04-25T18:37:46.295Z,74.48
2023-04-25T18:42:47.894Z,74.79
2023-04-25T18:47:51.047Z,74.66
2023-04-25T18:52:52.699Z,75.71
2023-04-25T18:57:54.334Z,76.99
2023-04-25T19:02:57.421Z,75.45
2023-04-25T19:07:59.536Z,77.86
2023-04-25T19:13:01.182Z,77.91
2023-04-25T19:18:04.372Z,78.67
2023-04-25T19:23:06.068Z,78.90
2023-04-25T19:28:07.720Z,77.35
2023-04-25T19:33:10.839Z,78.83
2023-04-25T19:38:12.492Z,79.21
2023-04-25T19:43:14.190Z,78.95
2023-04-25T19:48:17.213Z,80.13
2023-04-25T19:53:18.947Z,81.15
2023-04-25T19:58:20.556Z,81.17
2023-04-25T20:03:23.752Z,80.74
2023-04-25T20:08:26.131Z,81.42
2023-04-25T20:13:28.399Z,81.81
2023-04-25T20:18:31.536Z,82.59
2023-04-25T20:23:33.211Z,84.18
2023-04-25T20:28:34.857Z,83.49
2023-04-25T20:33:37.934Z,83.65
2023-04-25T20:38:39.592Z,85.30
2023-04-25T20:43:41.335Z,85.32
2023-04-25T20:48:44.477Z,87.03
2023-04-25T20:53:46.278Z,87.66
2023-04-25T20:58:47.954Z,86.60
2023-04-25T21:03:51.028Z,87.01
2023-04-25T21:08:53.125Z,86.02
2023-04-25T21:13:54.912Z,85.56
2023-04-25T21:18:57.873Z,87.40
2023-04-25T21:23:59.527Z,89.58
2023-04-25T21:29:01.139Z,88.69
2023-04-25T21:34:04.217Z,87.74
2023-04-25T21:39:05.848Z,88.43
2023-04-25T21:44:07.590Z,88.23
2023-04-25T21:49:10.651Z,89.43
2023-04-25T21:54:12.286Z,88.86
2023-04-25T21:59:14.034Z,89.75
2023-04-25T22:04:17.349Z,89.56
2023-04-25T22:09:19.176Z,88.89
2023-04-25T22:14:20.999Z,88.71
2023-04-25T22:19:24.195Z,88.23
2023-04-25T22:24:25.874Z,88.23
2023-04-25T22:29:27.584Z,89.12
2023-04-25T22:34:30.569Z,86.97
2023-04-25T22:39:32.233Z,87.65
2023-04-25T22:44:34.075Z,88.85
2023-04-25T22:49:37.038Z,89.36
2023-04-25T22:54:38.663Z,89.65
2023-04-25T22:59:40.315Z,90.41
2023-04-25T23:04:43.393Z,90.19
2023-04-25T23:09:45.126Z,89.01
2023-04-25T23:14:49.056Z,90.03
2023-04-25T23:19:52.016Z,90.65
2023-04-25T23:24:53.696Z,89.14
2023-04-25T23:29:55.346Z,89.86
2023-04-25T23:34:58.413Z,90.18
2023-04-25T23:40:00.093Z,89.14
2023-04-25T23:45:01.690Z,89.57
2023-04-25T23:50:05.738Z,89.67
2023-04-25T23:55:07.922Z,89.36
